sensor_id;sensor_type;location;lat;lon;timestamp;pressure;altitude;pressure_sealevel;temperature;humidity
23363;BME280;11853;48.080;11.960;2023-09-12T00:00:16;94629.22;;;21.40;98.57
23363;BME280;11853;48.080;11.960;2023-09-12T00:02:42;94640.47;;;21.36;98.61
23363;BME280;11853;48.080;11.960;2023-09-12T00:05:07;94627.78;;;21.37;98.94
23363;BME280;11853;48.080;11.960;2023-09-12T00:07:35;94632.72;;;21.40;98.84
23363;BME280;11853;48.080;11.960;2023-09-12T00:10:03;94629.66;;;21.36;98.72
23363;BME280;11853;48.080;11.960;2023-09-12T00:12:29;94638.19;;;21.33;98.97
23363;BME280;11853;48.080;11.960;2023-09-12T00:14:55;94629.09;;;21.28;99.14
23363;BME280;11853;48.080;11.960;2023-09-12T00:17:21;94622.13;;;21.20;99.50
23363;BME280;11853;48.080;11.960;2023-09-12T00:19:47;94623.03;;;21.14;99.90
23363;BME280;11853;48.080;11.960;2023-09-12T00:22:12;94618.31;;;21.09;100.00
23363;BME280;11853;48.080;11.960;2023-09-12T00:24:38;94607.72;;;21.08;100.00
23363;BME280;11853;48.080;11.960;2023-09-12T00:27:04;94611.25;;;21.08;100.00
23363;BME280;11853;48.080;11.960;2023-09-12T00:29:33;94604.81;;;21.09;100.00
23363;BME280;11853;48.080;11.960;2023-09-12T00:31:59;94620.41;;;21.07;100.00
23363;BME280;11853;48.080;11.960;2023-09-12T00:34:25;94607.56;;;21.03;100.00
23363;BME280;11853;48.080;11.960;2023-09-12T00:36:50;94610.13;;;20.98;100.00
23363;BME280;11853;48.080;11.960;2023-09-12T00:39:16;94600.38;;;20.97;100.00
23363;BME280;11853;48.080;11.960;2023-09-12T00:41:42;94606.22;;;20.93;100.00
23363;BME280;11853;48.080;11.960;2023-09-12T00:44:08;94600.22;;;20.91;100.00
23363;BME280;11853;48.080;11.960;2023-09-12T00:46:34;94605.19;;;20.95;100.00
23363;BME280;11853;48.080;11.960;2023-09-12T00:49:00;94594.63;;;20.93;100.00
23363;BME280;11853;48.080;11.960;2023-09-12T00:51:28;94600.38;;;20.97;100.00
23363;BME280;11853;48.080;11.960;2023-09-12T00:53:55;94594.41;;;20.95;100.00
23363;BME280;11853;48.080;11.960;2023-09-12T00:56:21;94590.28;;;20.92;100.00
23363;BME280;11853;48.080;11.960;2023-09-12T00:58:47;94590.94;;;20.87;100.00
23363;BME280;11853;48.080;11.960;2023-09-12T01:01:16;94592.66;;;20.82;100.00
23363;BME280;11853;48.080;11.960;2023-09-12T01:03:44;94594.16;;;20.78;100.00
23363;BME280;11853;48.080;11.960;2023-09-12T01:06:10;94597.66;;;20.78;100.00
23363;BME280;11853;48.080;11.960;2023-09-12T01:08:36;94595.19;;;20.77;100.00
23363;BME280;11853;48.080;11.960;2023-09-12T01:11:04;94594.81;;;20.73;100.00
23363;BME280;11853;48.080;11.960;2023-09-12T01:13:29;94592.13;;;20.73;100.00
23363;BME280;11853;48.080;11.960;2023-09-12T01:15:55;94594.34;;;20.76;100.00
23363;BME280;11853;48.080;11.960;2023-09-12T01:18:21;94598.78;;;20.70;100.00
23363;BME280;11853;48.080;11.960;2023-09-12T01:23:59;94595.09;;;20.65;100.00
23363;BME280;11853;48.080;11.960;2023-09-12T01:26:49;94590.75;;;20.64;100.00
23363;BME280;11853;48.080;11.960;2023-09-12T01:29:19;94592.84;;;20.62;100.00
23363;BME280;11853;48.080;11.960;2023-09-12T01:31:47;94592.91;;;20.55;100.00
23363;BME280;11853;48.080;11.960;2023-09-12T01:34:14;94583.38;;;20.53;100.00
23363;BME280;11853;48.080;11.960;2023-09-12T01:36:40;94585.44;;;20.51;100.00
23363;BME280;11853;48.080;11.960;2023-09-12T01:39:06;94591.84;;;20.56;100.00
23363;BME280;11853;48.080;11.960;2023-09-12T01:41:34;94586.69;;;20.55;100.00
23363;BME280;11853;48.080;11.960;2023-09-12T01:44:02;94588.78;;;20.53;100.00
23363;BME280;11853;48.080;11.960;2023-09-12T01:46:29;94582.13;;;20.48;100.00
23363;BME280;11853;48.080;11.960;2023-09-12T01:48:57;94582.13;;;20.48;100.00
23363;BME280;11853;48.080;11.960;2023-09-12T01:51:27;94584.88;;;20.42;100.00
23363;BME280;11853;48.080;11.960;2023-09-12T01:53:54;94584.50;;;20.38;100.00
23363;BME280;11853;48.080;11.960;2023-09-12T01:56:21;94588.09;;;20.32;100.00
23363;BME280;11853;48.080;11.960;2023-09-12T01:58:47;94581.47;;;20.28;100.00
23363;BME280;11853;48.080;11.960;2023-09-12T02:01:14;94580.88;;;20.26;100.00
23363;BME280;11853;48.080;11.960;2023-09-12T02:03:40;94583.59;;;20.19;100.00
23363;BME280;11853;48.080;11.960;2023-09-12T02:06:05;94580.91;;;20.19;100.00
23363;BME280;11853;48.080;11.960;2023-09-12T02:08:31;94584.84;;;20.23;100.00
23363;BME280;11853;48.080;11.960;2023-09-12T02:10:57;94598.06;;;20.25;100.00
23363;BME280;11853;48.080;11.960;2023-09-12T02:13:22;94600.59;;;20.20;100.00
23363;BME280;11853;48.080;11.960;2023-09-12T02:15:48;94595.25;;;20.13;100.00
23363;BME280;11853;48.080;11.960;2023-09-12T02:18:14;94604.00;;;20.09;100.00
23363;BME280;11853;48.080;11.960;2023-09-12T02:20:40;94598.59;;;20.09;100.00
23363;BME280;11853;48.080;11.960;2023-09-12T02:23:07;94596.13;;;20.07;100.00
23363;BME280;11853;48.080;11.960;2023-09-12T02:25:33;94598.84;;;20.07;100.00
23363;BME280;11853;48.080;11.960;2023-09-12T02:27:58;94600.31;;;20.03;100.00
23363;BME280;11853;48.080;11.960;2023-09-12T02:30:24;94597.63;;;20.03;100.00
23363;BME280;11853;48.080;11.960;2023-09-12T02:32:50;94601.53;;;20.07;100.00
23363;BME280;11853;48.080;11.960;2023-09-12T02:35:15;94598.59;;;20.09;100.00
23363;BME280;11853;48.080;11.960;2023-09-12T02:37:41;94598.59;;;20.09;100.00
23363;BME280;11853;48.080;11.960;2023-09-12T02:40:07;94605.84;;;20.08;100.00
23363;BME280;11853;48.080;11.960;2023-09-12T02:42:36;94605.47;;;20.05;100.00
23363;BME280;11853;48.080;11.960;2023-09-12T02:45:03;94603.84;;;20.03;100.00
23363;BME280;11853;48.080;11.960;2023-09-12T02:47:29;94602.84;;;19.98;100.00
23363;BME280;11853;48.080;11.960;2023-09-12T02:49:55;94599.16;;;19.92;100.00
23363;BME280;11853;48.080;11.960;2023-09-12T02:52:20;94596.44;;;19.92;100.00
23363;BME280;11853;48.080;11.960;2023-09-12T02:54:46;94604.28;;;19.94;100.00
23363;BME280;11853;48.080;11.960;2023-09-12T02:57:12;94601.84;;;19.92;100.00
23363;BME280;11853;48.080;11.960;2023-09-12T02:59:37;94602.28;;;19.89;100.00
23363;BME280;11853;48.080;11.960;2023-09-12T03:02:03;94594.19;;;19.89;100.00
23363;BME280;11853;48.080;11.960;2023-09-12T03:04:29;94590.00;;;19.93;100.00
23363;BME280;11853;48.080;11.960;2023-09-12T03:06:55;94595.41;;;19.93;100.00
23363;BME280;11853;48.080;11.960;2023-09-12T03:09:21;94592.69;;;19.93;100.00
23363;BME280;11853;48.080;11.960;2023-09-12T03:11:49;94596.22;;;19.94;100.00
23363;BME280;11853;48.080;11.960;2023-09-12T03:14:15;94596.44;;;19.92;100.00
23363;BME280;11853;48.080;11.960;2023-09-12T03:16:40;94600.59;;;19.88;100.00
23363;BME280;11853;48.080;11.960;2023-09-12T03:19:06;94596.88;;;19.89;100.00
23363;BME280;11853;48.080;11.960;2023-09-12T03:21:32;94593.13;;;19.90;100.00
23363;BME280;11853;48.080;11.960;2023-09-12T03:23:58;94599.78;;;19.88;100.00
23363;BME280;11853;48.080;11.960;2023-09-12T03:26:23;94600.41;;;19.90;100.00
23363;BME280;11853;48.080;11.960;2023-09-12T03:28:49;94597.31;;;19.86;100.00
23363;BME280;11853;48.080;11.960;2023-09-12T03:31:16;94602.09;;;19.84;100.00
23363;BME280;11853;48.080;11.960;2023-09-12T03:33:43;94603.53;;;19.80;100.00
23363;BME280;11853;48.080;11.960;2023-09-12T03:36:13;94599.41;;;19.84;100.00
23363;BME280;11853;48.080;11.960;2023-09-12T03:38:39;94595.06;;;19.83;100.00
23363;BME280;11853;48.080;11.960;2023-09-12T03:41:04;94595.47;;;19.80;100.00
23363;BME280;11853;48.080;11.960;2023-09-12T03:43:31;94588.06;;;19.75;100.00
23363;BME280;11853;48.080;11.960;2023-09-12T03:45:57;94589.69;;;19.76;100.00
23363;BME280;11853;48.080;11.960;2023-09-12T03:48:23;94592.19;;;19.78;100.00
23363;BME280;11853;48.080;11.960;2023-09-12T03:50:49;94591.75;;;19.81;100.00
23363;BME280;11853;48.080;11.960;2023-09-12T03:53:15;94591.56;;;19.76;100.00
23363;BME280;11853;48.080;11.960;2023-09-12T03:55:42;94588.06;;;19.75;100.00
23363;BME280;11853;48.080;11.960;2023-09-12T03:58:07;94593.44;;;19.75;100.00
23363;BME280;11853;48.080;11.960;2023-09-12T04:00:33;94590.94;;;19.74;100.00
23363;BME280;11853;48.080;11.960;2023-09-12T04:02:59;94592.19;;;19.71;100.00
23363;BME280;11853;48.080;11.960;2023-09-12T04:05:25;94594.50;;;19.68;100.00
23363;BME280;11853;48.080;11.960;2023-09-12T04:07:51;94591.19;;;19.66;100.00
23363;BME280;11853;48.080;11.960;2023-09-12T04:10:19;94595.56;;;19.67;100.00
23363;BME280;11853;48.080;11.960;2023-09-12T04:12:45;94598.44;;;19.65;100.00
23363;BME280;11853;48.080;11.960;2023-09-12T04:15:10;94604.66;;;19.66;100.00
23363;BME280;11853;48.080;11.960;2023-09-12T04:17:36;94602.59;;;19.68;100.00
23363;BME280;11853;48.080;11.960;2023-09-12T04:20:02;94600.72;;;19.62;100.00
23363;BME280;11853;48.080;11.960;2023-09-12T04:22:27;94604.47;;;19.61;100.00
23363;BME280;11853;48.080;11.960;2023-09-12T04:24:54;94603.03;;;19.58;100.00
23363;BME280;11853;48.080;11.960;2023-09-12T04:27:19;94604.47;;;19.54;100.00
23363;BME280;11853;48.080;11.960;2023-09-12T04:29:45;94604.72;;;19.52;100.00
23363;BME280;11853;48.080;11.960;2023-09-12T04:32:12;94599.53;;;19.51;100.00
23363;BME280;11853;48.080;11.960;2023-09-12T04:34:42;94598.50;;;19.52;100.00
23363;BME280;11853;48.080;11.960;2023-09-12T04:37:08;94600.97;;;19.53;100.00
23363;BME280;11853;48.080;11.960;2023-09-12T04:39:34;94602.22;;;19.51;100.00
23363;BME280;11853;48.080;11.960;2023-09-12T04:42:00;94596.84;;;19.51;100.00
23363;BME280;11853;48.080;11.960;2023-09-12T04:44:25;94597.88;;;19.50;100.00
23363;BME280;11853;48.080;11.960;2023-09-12T04:46:51;94598.09;;;19.48;100.00
23363;BME280;11853;48.080;11.960;2023-09-12T04:49:16;94600.56;;;19.50;100.00
23363;BME280;11853;48.080;11.960;2023-09-12T04:51:42;94597.69;;;19.45;100.00
23363;BME280;11853;48.080;11.960;2023-09-12T04:54:08;94593.13;;;19.45;100.00
23363;BME280;11853;48.080;11.960;2023-09-12T04:56:33;94599.34;;;19.46;100.00
23363;BME280;11853;48.080;11.960;2023-09-12T04:58:59;94595.41;;;19.48;100.00
23363;BME280;11853;48.080;11.960;2023-09-12T05:01:25;94602.63;;;19.54;100.00
23363;BME280;11853;48.080;11.960;2023-09-12T05:03:51;94600.94;;;19.67;100.00
23363;BME280;11853;48.080;11.960;2023-09-12T05:06:18;94607.28;;;19.79;100.00
23363;BME280;11853;48.080;11.960;2023-09-12T05:08:44;94607.25;;;19.86;100.00
23363;BME280;11853;48.080;11.960;2023-09-12T05:11:09;94610.72;;;19.93;100.00
23363;BME280;11853;48.080;11.960;2023-09-12T05:13:35;94609.88;;;19.99;100.00
23363;BME280;11853;48.080;11.960;2023-09-12T05:16:01;94613.13;;;20.08;100.00
23363;BME280;11853;48.080;11.960;2023-09-12T05:18:27;94616.00;;;20.13;100.00
23363;BME280;11853;48.080;11.960;2023-09-12T05:20:53;94612.97;;;20.28;100.00
23363;BME280;11853;48.080;11.960;2023-09-12T05:23:19;94613.88;;;20.46;100.00
23363;BME280;11853;48.080;11.960;2023-09-12T05:25:45;94614.75;;;20.72;100.00
23363;BME280;11853;48.080;11.960;2023-09-12T05:28:10;94616.13;;;21.00;100.00
23363;BME280;11853;48.080;11.960;2023-09-12T05:30:36;94615.97;;;21.31;100.00
23363;BME280;11853;48.080;11.960;2023-09-12T05:33:02;94610.53;;;21.56;100.00
23363;BME280;11853;48.080;11.960;2023-09-12T05:35:28;94614.75;;;21.82;99.25
23363;BME280;11853;48.080;11.960;2023-09-12T05:37:54;94619.06;;;22.02;98.51
23363;BME280;11853;48.080;11.960;2023-09-12T05:40:20;94624.59;;;22.25;97.40
23363;BME280;11853;48.080;11.960;2023-09-12T05:42:46;94620.28;;;22.48;96.50
23363;BME280;11853;48.080;11.960;2023-09-12T05:45:11;94627.28;;;22.67;95.10
23363;BME280;11853;48.080;11.960;2023-09-12T05:47:37;94632.00;;;22.84;93.42
23363;BME280;11853;48.080;11.960;2023-09-12T05:50:03;94630.59;;;22.93;92.59
23363;BME280;11853;48.080;11.960;2023-09-12T05:52:32;94633.03;;;22.94;92.28
23363;BME280;11853;48.080;11.960;2023-09-12T05:54:58;94635.22;;;23.04;92.12
23363;BME280;11853;48.080;11.960;2023-09-12T05:57:24;94629.66;;;23.23;92.03
23363;BME280;11853;48.080;11.960;2023-09-12T05:59:50;94637.38;;;23.54;90.82
23363;BME280;11853;48.080;11.960;2023-09-12T06:02:15;94627.91;;;23.92;88.81
23363;BME280;11853;48.080;11.960;2023-09-12T06:04:43;94633.44;;;24.14;88.41
23363;BME280;11853;48.080;11.960;2023-09-12T06:07:09;94632.28;;;24.39;87.52
23363;BME280;11853;48.080;11.960;2023-09-12T06:09:35;94640.91;;;24.64;86.32
23363;BME280;11853;48.080;11.960;2023-09-12T06:12:01;94621.81;;;24.93;85.31
23363;BME280;11853;48.080;11.960;2023-09-12T06:14:27;94640.47;;;25.23;84.42
23363;BME280;11853;48.080;11.960;2023-09-12T06:16:53;94637.69;;;25.57;82.77
23363;BME280;11853;48.080;11.960;2023-09-12T06:19:19;94641.34;;;25.84;81.32
23363;BME280;11853;48.080;11.960;2023-09-12T06:21:45;94632.41;;;26.11;79.37
23363;BME280;11853;48.080;11.960;2023-09-12T06:24:16;94635.53;;;26.47;79.22
23363;BME280;11853;48.080;11.960;2023-09-12T06:26:42;94640.78;;;26.86;77.19
23363;BME280;11853;48.080;11.960;2023-09-12T06:29:08;94639.16;;;27.17;76.50
23363;BME280;11853;48.080;11.960;2023-09-12T06:31:34;94638.50;;;27.42;75.17
23363;BME280;11853;48.080;11.960;2023-09-12T06:34:01;94642.19;;;27.68;71.98
23363;BME280;11853;48.080;11.960;2023-09-12T06:36:27;94646.94;;;27.88;70.37
23363;BME280;11853;48.080;11.960;2023-09-12T06:38:57;94647.00;;;28.03;71.15
23363;BME280;11853;48.080;11.960;2023-09-12T06:41:24;94643.75;;;28.12;71.13
23363;BME280;11853;48.080;11.960;2023-09-12T06:43:49;94640.00;;;28.28;71.64
23363;BME280;11853;48.080;11.960;2023-09-12T06:46:15;94643.91;;;28.52;68.94
23363;BME280;11853;48.080;11.960;2023-09-12T06:48:44;94645.56;;;28.89;67.25
23363;BME280;11853;48.080;11.960;2023-09-12T06:51:11;94651.91;;;29.05;64.03
23363;BME280;11853;48.080;11.960;2023-09-12T06:53:36;94639.06;;;29.16;63.41
23363;BME280;11853;48.080;11.960;2023-09-12T06:56:03;94651.09;;;29.30;61.23
23363;BME280;11853;48.080;11.960;2023-09-12T06:58:29;94652.69;;;29.47;59.52
23363;BME280;11853;48.080;11.960;2023-09-12T07:00:55;94659.78;;;29.53;62.19
23363;BME280;11853;48.080;11.960;2023-09-12T07:03:21;94660.88;;;29.62;61.99
23363;BME280;11853;48.080;11.960;2023-09-12T07:05:46;94666.31;;;29.77;57.54
23363;BME280;11853;48.080;11.960;2023-09-12T07:08:12;94659.22;;;29.61;56.37
23363;BME280;11853;48.080;11.960;2023-09-12T07:10:43;94664.16;;;29.64;57.37
23363;BME280;11853;48.080;11.960;2023-09-12T07:13:10;94663.28;;;29.84;56.19
23363;BME280;11853;48.080;11.960;2023-09-12T07:15:36;94668.19;;;29.87;54.42
23363;BME280;11853;48.080;11.960;2023-09-12T07:18:02;94661.41;;;29.74;55.79
23363;BME280;11853;48.080;11.960;2023-09-12T07:20:27;94666.88;;;29.69;57.64
23363;BME280;11853;48.080;11.960;2023-09-12T07:22:53;94665.50;;;29.77;56.80
23363;BME280;11853;48.080;11.960;2023-09-12T07:25:19;94661.09;;;29.91;57.45
23363;BME280;11853;48.080;11.960;2023-09-12T07:27:46;94663.44;;;30.13;58.36
23363;BME280;11853;48.080;11.960;2023-09-12T07:30:12;94669.47;;;30.20;54.86
23363;BME280;11853;48.080;11.960;2023-09-12T07:32:38;94663.13;;;30.35;53.93
23363;BME280;11853;48.080;11.960;2023-09-12T07:35:03;94670.28;;;30.26;54.83
23363;BME280;11853;48.080;11.960;2023-09-12T07:37:29;94670.34;;;30.05;53.47
23363;BME280;11853;48.080;11.960;2023-09-12T07:39:55;94678.31;;;29.86;56.07
23363;BME280;11853;48.080;11.960;2023-09-12T07:42:24;94673.66;;;29.87;56.91
23363;BME280;11853;48.080;11.960;2023-09-12T07:44:50;94676.94;;;29.94;57.76
23363;BME280;11853;48.080;11.960;2023-09-12T07:47:17;94668.16;;;30.02;58.36
23363;BME280;11853;48.080;11.960;2023-09-12T07:49:42;94669.47;;;30.20;59.30
23363;BME280;11853;48.080;11.960;2023-09-12T07:52:08;94669.53;;;30.05;56.91
23363;BME280;11853;48.080;11.960;2023-09-12T07:54:33;94683.47;;;30.03;55.30
23363;BME280;11853;48.080;11.960;2023-09-12T07:56:59;94676.94;;;29.99;56.78
23363;BME280;11853;48.080;11.960;2023-09-12T07:59:25;94679.94;;;29.93;57.41
23363;BME280;11853;48.080;11.960;2023-09-12T08:01:51;94678.25;;;30.07;61.89
23363;BME280;11853;48.080;11.960;2023-09-12T08:04:19;94680.19;;;30.01;59.93
23363;BME280;11853;48.080;11.960;2023-09-12T08:06:45;94681.81;;;30.07;61.96
23363;BME280;11853;48.080;11.960;2023-09-12T08:09:11;94683.72;;;30.17;60.68
23363;BME280;11853;48.080;11.960;2023-09-12T08:11:36;94688.06;;;30.18;59.62
23363;BME280;11853;48.080;11.960;2023-09-12T08:14:02;94687.81;;;30.20;58.75
23363;BME280;11853;48.080;11.960;2023-09-12T08:16:28;94690.75;;;30.39;62.24
23363;BME280;11853;48.080;11.960;2023-09-12T08:18:53;94685.59;;;30.32;58.15
23363;BME280;11853;48.080;11.960;2023-09-12T08:21:19;94691.31;;;30.36;59.34
23363;BME280;11853;48.080;11.960;2023-09-12T08:23:45;94680.34;;;30.36;60.85
23363;BME280;11853;48.080;11.960;2023-09-12T08:26:11;94687.50;;;30.32;60.87
23363;BME280;11853;48.080;11.960;2023-09-12T08:28:36;94679.84;;;30.28;60.35
23363;BME280;11853;48.080;11.960;2023-09-12T08:31:02;94678.47;;;30.21;61.81
23363;BME280;11853;48.080;11.960;2023-09-12T08:33:28;94683.97;;;30.21;60.52
23363;BME280;11853;48.080;11.960;2023-09-12T08:35:53;94681.25;;;30.26;60.70
23363;BME280;11853;48.080;11.960;2023-09-12T08:38:19;94689.13;;;30.38;62.18
23363;BME280;11853;48.080;11.960;2023-09-12T08:40:51;94696.75;;;30.46;62.16
23363;BME280;11853;48.080;11.960;2023-09-12T08:43:17;94694.84;;;30.41;60.45
23363;BME280;11853;48.080;11.960;2023-09-12T08:45:43;94691.44;;;30.05;57.16
23363;BME280;11853;48.080;11.960;2023-09-12T08:48:11;94684.28;;;30.14;60.79
23363;BME280;11853;48.080;11.960;2023-09-12T08:50:37;94688.09;;;30.13;61.41
23363;BME280;11853;48.080;11.960;2023-09-12T08:53:03;94683.44;;;30.14;61.04
23363;BME280;11853;48.080;11.960;2023-09-12T08:55:29;94681.06;;;29.81;58.28
23363;BME280;11853;48.080;11.960;2023-09-12T08:57:57;94684.13;;;29.70;58.02
23363;BME280;11853;48.080;11.960;2023-09-12T09:00:24;94680.31;;;29.71;59.94
23363;BME280;11853;48.080;11.960;2023-09-12T09:02:50;94684.38;;;29.78;61.60
23363;BME280;11853;48.080;11.960;2023-09-12T09:05:17;94688.19;;;29.88;61.93
23363;BME280;11853;48.080;11.960;2023-09-12T09:07:45;94693.06;;;29.96;63.15
23363;BME280;11853;48.080;11.960;2023-09-12T09:10:15;94681.06;;;29.81;58.11
23363;BME280;11853;48.080;11.960;2023-09-12T09:12:44;94683.81;;;29.86;60.18
23363;BME280;11853;48.080;11.960;2023-09-12T09:15:29;94677.25;;;29.82;59.67
23363;BME280;11853;48.080;11.960;2023-09-12T09:18:02;94680.00;;;29.88;61.36
23363;BME280;11853;48.080;11.960;2023-09-12T09:20:31;94678.59;;;29.90;61.98
23363;BME280;11853;48.080;11.960;2023-09-12T09:23:04;94678.81;;;29.99;62.43
23363;BME280;11853;48.080;11.960;2023-09-12T09:25:39;94676.09;;;30.04;61.44
23363;BME280;11853;48.080;11.960;2023-09-12T09:28:21;94678.81;;;29.99;60.06
23363;BME280;11853;48.080;11.960;2023-09-12T09:30:50;94669.28;;;29.96;58.79
23363;BME280;11853;48.080;11.960;2023-09-12T09:33:16;94674.50;;;29.88;58.62
23363;BME280;11853;48.080;11.960;2023-09-12T09:35:45;94674.25;;;29.79;60.20
23363;BME280;11853;48.080;11.960;2023-09-12T09:38:11;94672.06;;;29.76;59.45
23363;BME280;11853;48.080;11.960;2023-09-12T09:40:42;94675.63;;;29.76;58.04
23363;BME280;11853;48.080;11.960;2023-09-12T09:43:09;94683.84;;;29.66;57.73
23363;BME280;11853;48.080;11.960;2023-09-12T09:45:43;94672.38;;;29.59;58.60
23363;BME280;11853;48.080;11.960;2023-09-12T09:48:10;94677.53;;;29.60;60.43
23363;BME280;11853;48.080;11.960;2023-09-12T09:50:42;94677.28;;;29.62;61.03
23363;BME280;11853;48.080;11.960;2023-09-12T09:53:08;94675.63;;;29.61;60.94
23363;BME280;11853;48.080;11.960;2023-09-12T09:55:35;94666.34;;;29.72;62.41
23363;BME280;11853;48.080;11.960;2023-09-12T09:58:07;94672.91;;;29.66;62.14
23363;BME280;11853;48.080;11.960;2023-09-12T10:00:35;94676.47;;;29.72;62.70
23363;BME280;11853;48.080;11.960;2023-09-12T10:03:04;94665.78;;;29.75;62.12
23363;BME280;11853;48.080;11.960;2023-09-12T10:05:37;94664.41;;;29.78;62.33
23363;BME280;11853;48.080;11.960;2023-09-12T10:08:03;94657.59;;;29.65;60.77
23363;BME280;11853;48.080;11.960;2023-09-12T10:10:32;94663.09;;;29.65;61.86
23363;BME280;11853;48.080;11.960;2023-09-12T10:13:02;94660.03;;;29.61;62.25
23363;BME280;11853;48.080;11.960;2023-09-12T10:15:30;94659.78;;;29.58;64.70
23363;BME280;11853;48.080;11.960;2023-09-12T10:18:00;94655.41;;;29.62;68.17
23363;BME280;11853;48.080;11.960;2023-09-12T10:20:50;94648.28;;;29.76;67.88
23363;BME280;11853;48.080;11.960;2023-09-12T10:23:30;94643.94;;;29.65;68.33
23363;BME280;11853;48.080;11.960;2023-09-12T10:25:59;94651.84;;;29.56;68.94
23363;BME280;11853;48.080;11.960;2023-09-12T10:28:26;94646.38;;;29.56;71.70
23363;BME280;11853;48.080;11.960;2023-09-12T10:30:52;94644.47;;;29.62;73.12
23363;BME280;11853;48.080;11.960;2023-09-12T10:33:19;94643.38;;;29.68;69.25
23363;BME280;11853;48.080;11.960;2023-09-12T10:35:46;94644.16;;;29.58;68.45
23363;BME280;11853;48.080;11.960;2023-09-12T10:38:13;94648.88;;;29.42;70.73
23363;BME280;11853;48.080;11.960;2023-09-12T10:40:42;94642.28;;;29.44;71.39
23363;BME280;11853;48.080;11.960;2023-09-12T10:43:09;94649.41;;;29.45;67.44
23363;BME280;11853;48.080;11.960;2023-09-12T10:45:36;94643.66;;;29.36;68.22
23363;BME280;11853;48.080;11.960;2023-09-12T10:48:03;94646.13;;;29.37;66.81
23363;BME280;11853;48.080;11.960;2023-09-12T10:50:29;94646.94;;;29.33;65.72
23363;BME280;11853;48.080;11.960;2023-09-12T10:52:56;94644.22;;;29.38;64.17
23363;BME280;11853;48.080;11.960;2023-09-12T10:55:33;94648.06;;;29.32;63.90
23363;BME280;11853;48.080;11.960;2023-09-12T10:58:07;94642.59;;;29.27;66.38
23363;BME280;11853;48.080;11.960;2023-09-12T11:00:33;94647.78;;;29.28;66.87
23363;BME280;11853;48.080;11.960;2023-09-12T11:03:35;94644.25;;;29.28;64.12
23363;BME280;11853;48.080;11.960;2023-09-12T11:05:53;94646.69;;;29.24;65.93
23363;BME280;11853;48.080;11.960;2023-09-12T11:08:20;94648.59;;;29.18;63.55
23363;BME280;11853;48.080;11.960;2023-09-12T11:11:18;94647.28;;;29.16;62.70
23363;BME280;11853;48.080;11.960;2023-09-12T11:14:01;94652.19;;;29.09;63.04
23363;BME280;11853;48.080;11.960;2023-09-12T11:16:28;94642.91;;;29.05;62.65
23363;BME280;11853;48.080;11.960;2023-09-12T11:19:19;94646.16;;;29.02;61.65
23363;BME280;11853;48.080;11.960;2023-09-12T11:21:50;94645.59;;;28.94;60.15
23363;BME280;11853;48.080;11.960;2023-09-12T11:24:16;94649.41;;;28.98;57.61
23363;BME280;11853;48.080;11.960;2023-09-12T11:26:56;94640.66;;;28.86;59.72
23363;BME280;11853;48.080;11.960;2023-09-12T11:29:35;94639.84;;;28.81;59.95
23363;BME280;11853;48.080;11.960;2023-09-12T11:32:02;94636.84;;;28.77;61.88
23363;BME280;11853;48.080;11.960;2023-09-12T11:34:35;94635.75;;;28.68;61.12
23363;BME280;11853;48.080;11.960;2023-09-12T11:37:01;94630.81;;;28.65;61.99
23363;BME280;11853;48.080;11.960;2023-09-12T11:39:30;94630.53;;;28.66;62.61
23363;BME280;11853;48.080;11.960;2023-09-12T11:41:57;94634.63;;;28.64;61.91
23363;BME280;11853;48.080;11.960;2023-09-12T11:44:24;94634.09;;;28.67;62.37
23363;BME280;11853;48.080;11.960;2023-09-12T11:46:51;94626.41;;;28.59;63.13
23363;BME280;11853;48.080;11.960;2023-09-12T11:49:18;94627.81;;;28.56;62.91
23363;BME280;11853;48.080;11.960;2023-09-12T11:51:52;94621.50;;;28.45;62.73
23363;BME280;11853;48.080;11.960;2023-09-12T11:54:20;94636.22;;;28.39;63.41
23363;BME280;11853;48.080;11.960;2023-09-12T11:56:49;94632.38;;;28.40;62.84
23363;BME280;11853;48.080;11.960;2023-09-12T11:59:23;94625.84;;;28.36;64.29
23363;BME280;11853;48.080;11.960;2023-09-12T12:01:49;94627.47;;;28.37;62.91
23363;BME280;11853;48.080;11.960;2023-09-12T12:07:24;94625.81;;;28.31;63.47
23363;BME280;11853;48.080;11.960;2023-09-12T12:09:50;94624.16;;;28.30;63.28
23363;BME280;11853;48.080;11.960;2023-09-12T12:12:16;94623.91;;;28.32;63.34
23363;BME280;11853;48.080;11.960;2023-09-12T12:14:42;94623.63;;;28.28;64.80
23363;BME280;11853;48.080;11.960;2023-09-12T12:17:09;94614.09;;;28.30;64.71
23363;BME280;11853;48.080;11.960;2023-09-12T12:19:36;94621.44;;;28.25;65.56
23363;BME280;11853;48.080;11.960;2023-09-12T12:22:06;94619.25;;;28.27;67.80
23363;BME280;11853;48.080;11.960;2023-09-12T12:24:45;94620.91;;;28.33;66.04
23363;BME280;11853;48.080;11.960;2023-09-12T12:27:10;94618.72;;;28.35;65.69
23363;BME280;11853;48.080;11.960;2023-09-12T12:29:37;94613.56;;;28.44;67.30
23363;BME280;11853;48.080;11.960;2023-09-12T12:32:05;94616.03;;;28.56;65.45
23363;BME280;11853;48.080;11.960;2023-09-12T12:34:31;94608.69;;;28.56;67.29
23363;BME280;11853;48.080;11.960;2023-09-12T12:36:57;94614.69;;;28.48;68.97
23363;BME280;11853;48.080;11.960;2023-09-12T12:39:23;94616.03;;;28.45;69.11
23363;BME280;11853;48.080;11.960;2023-09-12T12:41:52;94608.91;;;28.39;69.69
23363;BME280;11853;48.080;11.960;2023-09-12T12:44:19;94607.81;;;28.40;69.85
23363;BME280;11853;48.080;11.960;2023-09-12T12:46:52;94605.66;;;28.42;70.81
23363;BME280;11853;48.080;11.960;2023-09-12T12:49:19;94599.09;;;28.43;71.11
23363;BME280;11853;48.080;11.960;2023-09-12T12:51:46;94601.56;;;28.50;69.50